sensor_id;sensor_type;location;lat;lon;timestamp;pressure;altitude;pressure_sealevel;temperature;humidity
49194;BME280;35029;50.804;12.866;2023-02-28T00:00:21;98896.91;;;-2.46;100.00
49194;BME280;35029;50.804;12.866;2023-02-28T00:02:47;98886.25;;;-2.42;100.00
49194;BME280;35029;50.804;12.866;2023-02-28T00:05:15;98883.50;;;-2.39;100.00
49194;BME280;35029;50.804;12.866;2023-02-28T00:07:41;98885.00;;;-2.34;100.00
49194;BME280;35029;50.804;12.866;2023-02-28T00:10:17;98891.00;;;-2.34;100.00
49194;BME280;35029;50.804;12.866;2023-02-28T00:12:47;98873.75;;;-2.51;100.00
49194;BME280;35029;50.804;12.866;2023-02-28T00:15:13;98891.34;;;-2.40;100.00
49194;BME280;35029;50.804;12.866;2023-02-28T00:17:39;98872.66;;;-2.47;100.00
49194;BME280;35029;50.804;12.866;2023-02-28T00:20:05;98876.44;;;-2.52;100.00
49194;BME280;35029;50.804;12.866;2023-02-28T00:22:34;98885.22;;;-2.39;100.00
49194;BME280;35029;50.804;12.866;2023-02-28T00:24:59;98872.66;;;-2.47;100.00
49194;BME280;35029;50.804;12.866;2023-02-28T00:27:26;98887.59;;;-2.34;100.00
49194;BME280;35029;50.804;12.866;2023-02-28T00:29:51;98880.22;;;-2.42;100.00
49194;BME280;35029;50.804;12.866;2023-02-28T00:32:17;98884.41;;;-2.40;100.00
49194;BME280;35029;50.804;12.866;2023-02-28T00:34:44;98872.44;;;-2.42;100.00
49194;BME280;35029;50.804;12.866;2023-02-28T00:37:10;98888.91;;;-2.27;100.00
49194;BME280;35029;50.804;12.866;2023-02-28T00:39:38;98871.16;;;-2.35;100.00
49194;BME280;35029;50.804;12.866;2023-02-28T00:42:07;98872.94;;;-2.35;100.00
49194;BME280;35029;50.804;12.866;2023-02-28T00:44:33;98889.56;;;-2.24;100.00
49194;BME280;35029;50.804;12.866;2023-02-28T00:47:00;98870.41;;;-2.37;100.00
49194;BME280;35029;50.804;12.866;2023-02-28T00:49:26;98889.00;;;-2.29;100.00
49194;BME280;35029;50.804;12.866;2023-02-28T00:51:53;98882.03;;;-2.28;100.00
49194;BME280;35029;50.804;12.866;2023-02-28T00:54:20;98882.03;;;-2.28;100.00
49194;BME280;35029;50.804;12.866;2023-02-28T00:56:47;98857.69;;;-2.42;100.00
49194;BME280;35029;50.804;12.866;2023-02-28T00:59:13;98861.13;;;-2.41;100.00
49194;BME280;35029;50.804;12.866;2023-02-28T01:01:39;98857.75;;;-2.43;100.00
49194;BME280;35029;50.804;12.866;2023-02-28T01:04:05;98874.66;;;-2.36;100.00
49194;BME280;35029;50.804;12.866;2023-02-28T01:06:31;98869.84;;;-2.42;100.00
49194;BME280;35029;50.804;12.866;2023-02-28T01:08:58;98879.13;;;-2.38;100.00
49194;BME280;35029;50.804;12.866;2023-02-28T01:11:24;98864.06;;;-2.47;100.00
49194;BME280;35029;50.804;12.866;2023-02-28T01:13:52;98864.63;;;-2.42;100.00
49194;BME280;35029;50.804;12.866;2023-02-28T01:16:17;98875.03;;;-2.42;100.00
49194;BME280;35029;50.804;12.866;2023-02-28T01:18:44;98860.78;;;-2.51;100.00
49194;BME280;35029;50.804;12.866;2023-02-28T01:21:12;98854.84;;;-2.53;100.00
49194;BME280;35029;50.804;12.866;2023-02-28T01:23:40;98866.06;;;-2.52;100.00
49194;BME280;35029;50.804;12.866;2023-02-28T01:26:13;98864.13;;;-2.65;100.00
49194;BME280;35029;50.804;12.866;2023-02-28T01:28:40;98868.25;;;-2.61;100.00
49194;BME280;35029;50.804;12.866;2023-02-28T01:31:06;98860.31;;;-2.74;99.16
49194;BME280;35029;50.804;12.866;2023-02-28T01:33:32;98862.41;;;-2.80;99.13
49194;BME280;35029;50.804;12.866;2023-02-28T01:36:01;98857.34;;;-2.99;98.36
49194;BME280;35029;50.804;12.866;2023-02-28T01:38:28;98878.38;;;-3.04;97.58
49194;BME280;35029;50.804;12.866;2023-02-28T01:40:54;98852.47;;;-3.21;97.93
49194;BME280;35029;50.804;12.866;2023-02-28T01:46:13;98824.47;;;-3.48;97.41
49194;BME280;35029;50.804;12.866;2023-02-28T01:48:48;98833.03;;;-3.46;97.07
49194;BME280;35029;50.804;12.866;2023-02-28T01:51:20;98859.22;;;-3.35;97.58
49194;BME280;35029;50.804;12.866;2023-02-28T01:53:57;98846.28;;;-3.52;96.14
49194;BME280;35029;50.804;12.866;2023-02-28T01:56:28;98871.22;;;-3.50;96.03
49194;BME280;35029;50.804;12.866;2023-02-28T01:58:55;98844.34;;;-3.65;95.85
49194;BME280;35029;50.804;12.866;2023-02-28T02:01:23;98835.88;;;-3.68;96.50
49194;BME280;35029;50.804;12.866;2023-02-28T02:03:54;98856.22;;;-3.61;96.38
49194;BME280;35029;50.804;12.866;2023-02-28T02:06:25;98849.78;;;-3.69;96.43
49194;BME280;35029;50.804;12.866;2023-02-28T02:09:09;98840.78;;;-3.80;96.10
49194;BME280;35029;50.804;12.866;2023-02-28T02:11:36;98855.78;;;-3.69;96.82
49194;BME280;35029;50.804;12.866;2023-02-28T02:16:56;98839.78;;;-3.77;96.42
49194;BME280;35029;50.804;12.866;2023-02-28T02:37:24;98837.97;;;-3.93;97.39
49194;BME280;35029;50.804;12.866;2023-02-28T02:45:19;98831.16;;;-3.78;98.17
49194;BME280;35029;50.804;12.866;2023-02-28T02:47:48;98821.13;;;-3.84;98.53
49194;BME280;35029;50.804;12.866;2023-02-28T02:50:21;98841.31;;;-3.73;98.48
49194;BME280;35029;50.804;12.866;2023-02-28T02:52:53;98843.91;;;-3.73;98.57
49194;BME280;35029;50.804;12.866;2023-02-28T02:55:23;98847.91;;;-3.67;99.07
49194;BME280;35029;50.804;12.866;2023-02-28T02:57:54;98845.78;;;-3.59;99.21
49194;BME280;35029;50.804;12.866;2023-02-28T03:00:27;98853.16;;;-3.51;99.69
49194;BME280;35029;50.804;12.866;2023-02-28T03:02:56;98845.53;;;-3.54;98.66
49194;BME280;35029;50.804;12.866;2023-02-28T03:05:29;98851.88;;;-3.60;99.57
49194;BME280;35029;50.804;12.866;2023-02-28T03:07:56;98848.81;;;-3.68;99.61
49194;BME280;35029;50.804;12.866;2023-02-28T03:10:32;98857.06;;;-3.60;100.00
49194;BME280;35029;50.804;12.866;2023-02-28T03:18:42;98849.34;;;-3.62;100.00
49194;BME280;35029;50.804;12.866;2023-02-28T03:26:26;98849.50;;;-3.47;100.00
49194;BME280;35029;50.804;12.866;2023-02-28T03:31:39;98841.25;;;-3.38;100.00
49194;BME280;35029;50.804;12.866;2023-02-28T03:34:14;98826.34;;;-3.50;100.00
49194;BME280;35029;50.804;12.866;2023-02-28T03:36:46;98840.16;;;-3.34;100.00
49194;BME280;35029;50.804;12.866;2023-02-28T03:39:28;98846.78;;;-3.28;100.00
49194;BME280;35029;50.804;12.866;2023-02-28T03:42:00;98844.09;;;-3.27;100.00
49194;BME280;35029;50.804;12.866;2023-02-28T03:44:36;98841.03;;;-3.17;100.00
49194;BME280;35029;50.804;12.866;2023-02-28T03:47:17;98832.03;;;-3.28;100.00
49194;BME280;35029;50.804;12.866;2023-02-28T03:50:00;98844.53;;;-3.18;100.00
49194;BME280;35029;50.804;12.866;2023-02-28T03:52:34;98839.34;;;-3.18;100.00
49194;BME280;35029;50.804;12.866;2023-02-28T03:55:05;98847.56;;;-3.10;100.00
49194;BME280;35029;50.804;12.866;2023-02-28T03:57:39;98845.56;;;-3.05;100.00
49194;BME280;35029;50.804;12.866;2023-02-28T04:00:09;98842.63;;;-2.99;100.00
49194;BME280;35029;50.804;12.866;2023-02-28T04:02:37;98820.94;;;-3.14;100.00
49194;BME280;35029;50.804;12.866;2023-02-28T04:05:05;98826.81;;;-3.10;100.00
49194;BME280;35029;50.804;12.866;2023-02-28T04:07:32;98843.69;;;-3.03;100.00
49194;BME280;35029;50.804;12.866;2023-02-28T04:09:58;98852.09;;;-2.98;100.00
49194;BME280;35029;50.804;12.866;2023-02-28T04:12:24;98831.72;;;-3.06;100.00
49194;BME280;35029;50.804;12.866;2023-02-28T04:14:50;98823.28;;;-3.09;100.00
49194;BME280;35029;50.804;12.866;2023-02-28T04:17:16;98828.56;;;-3.11;100.00
49194;BME280;35029;50.804;12.866;2023-02-28T04:19:41;98846.91;;;-2.98;100.00
49194;BME280;35029;50.804;12.866;2023-02-28T04:22:08;98846.06;;;-2.98;100.00
49194;BME280;35029;50.804;12.866;2023-02-28T04:24:34;98848.66;;;-2.98;100.00
49194;BME280;35029;50.804;12.866;2023-02-28T04:27:00;98849.56;;;-2.99;100.00
49194;BME280;35029;50.804;12.866;2023-02-28T04:29:27;98844.03;;;-3.09;100.00
49194;BME280;35029;50.804;12.866;2023-02-28T04:31:54;98860.13;;;-3.02;100.00
49194;BME280;35029;50.804;12.866;2023-02-28T04:34:23;98806.50;;;-3.35;100.00
49194;BME280;35029;50.804;12.866;2023-02-28T04:36:49;98853.44;;;-3.07;100.00
49194;BME280;35029;50.804;12.866;2023-02-28T04:39:16;98856.34;;;-3.13;100.00
49194;BME280;35029;50.804;12.866;2023-02-28T04:41:44;98856.25;;;-3.11;100.00
49194;BME280;35029;50.804;12.866;2023-02-28T04:44:10;98849.72;;;-3.18;100.00
49194;BME280;35029;50.804;12.866;2023-02-28T04:46:36;98868.31;;;-3.10;100.00
49194;BME280;35029;50.804;12.866;2023-02-28T04:49:02;98852.31;;;-3.18;100.00
49194;BME280;35029;50.804;12.866;2023-02-28T04:51:28;98852.31;;;-3.18;100.00
49194;BME280;35029;50.804;12.866;2023-02-28T04:53:54;98858.84;;;-3.11;100.00
49194;BME280;35029;50.804;12.866;2023-02-28T04:56:21;98857.94;;;-3.10;100.00
49194;BME280;35029;50.804;12.866;2023-02-28T04:58:47;98867.13;;;-3.04;100.00
49194;BME280;35029;50.804;12.866;2023-02-28T05:03:42;98852.75;;;-3.10;100.00
49194;BME280;35029;50.804;12.866;2023-02-28T05:06:09;98878.72;;;-2.94;100.00
49194;BME280;35029;50.804;12.866;2023-02-28T05:08:34;98857.44;;;-3.01;100.00
49194;BME280;35029;50.804;12.866;2023-02-28T05:11:00;98879.53;;;-2.94;100.00
49194;BME280;35029;50.804;12.866;2023-02-28T05:13:27;98872.66;;;-2.95;100.00
49194;BME280;35029;50.804;12.866;2023-02-28T05:15:54;98860.22;;;-3.04;100.00
49194;BME280;35029;50.804;12.866;2023-02-28T05:18:20;98871.16;;;-2.99;100.00
49194;BME280;35029;50.804;12.866;2023-02-28T05:20:46;98878.84;;;-2.97;100.00
49194;BME280;35029;50.804;12.866;2023-02-28T05:23:12;98866.97;;;-3.01;100.00
49194;BME280;35029;50.804;12.866;2023-02-28T05:25:39;98882.13;;;-2.94;100.00
49194;BME280;35029;50.804;12.866;2023-02-28T05:28:05;98883.22;;;-2.98;100.00
49194;BME280;35029;50.804;12.866;2023-02-28T05:30:31;98877.13;;;-2.97;100.00
49194;BME280;35029;50.804;12.866;2023-02-28T05:32:58;98868.13;;;-3.07;100.00
49194;BME280;35029;50.804;12.866;2023-02-28T05:35:24;98888.22;;;-2.95;100.00
49194;BME280;35029;50.804;12.866;2023-02-28T05:37:50;98889.19;;;-2.96;100.00
49194;BME280;35029;50.804;12.866;2023-02-28T05:40:16;98877.69;;;-3.08;100.00
49194;BME280;35029;50.804;12.866;2023-02-28T05:42:42;98879.75;;;-3.14;100.00
49194;BME280;35029;50.804;12.866;2023-02-28T05:45:08;98887.47;;;-3.13;100.00
49194;BME280;35029;50.804;12.866;2023-02-28T05:47:35;98873.81;;;-3.16;100.00
49194;BME280;35029;50.804;12.866;2023-02-28T05:50:01;98877.47;;;-3.20;100.00
49194;BME280;35029;50.804;12.866;2023-02-28T05:52:27;98868.19;;;-3.25;100.00
49194;BME280;35029;50.804;12.866;2023-02-28T05:54:53;98893.47;;;-3.12;100.00
49194;BME280;35029;50.804;12.866;2023-02-28T05:57:19;98889.22;;;-3.13;100.00
49194;BME280;35029;50.804;12.866;2023-02-28T05:59:44;98898.09;;;-3.17;100.00
49194;BME280;35029;50.804;12.866;2023-02-28T06:02:15;98895.81;;;-3.24;100.00
49194;BME280;35029;50.804;12.866;2023-02-28T06:04:41;98901.91;;;-3.25;100.00
49194;BME280;35029;50.804;12.866;2023-02-28T06:07:10;98897.03;;;-3.31;100.00
49194;BME280;35029;50.804;12.866;2023-02-28T06:09:36;98907.34;;;-3.29;100.00
49194;BME280;35029;50.804;12.866;2023-02-28T06:12:04;98894.84;;;-3.38;100.00
49194;BME280;35029;50.804;12.866;2023-02-28T06:14:31;98909.94;;;-3.29;100.00
49194;BME280;35029;50.804;12.866;2023-02-28T06:16:58;98908.09;;;-3.27;100.00
49194;BME280;35029;50.804;12.866;2023-02-28T06:19:24;98914.19;;;-3.28;100.00
49194;BME280;35029;50.804;12.866;2023-02-28T06:21:54;98914.88;;;-3.25;100.00
49194;BME280;35029;50.804;12.866;2023-02-28T06:24:21;98918.97;;;-3.20;100.00
49194;BME280;35029;50.804;12.866;2023-02-28T06:26:47;98906.63;;;-3.33;100.00
49194;BME280;35029;50.804;12.866;2023-02-28T06:29:13;98927.34;;;-3.15;100.00
49194;BME280;35029;50.804;12.866;2023-02-28T06:31:44;98865.13;;;-3.49;100.00
49194;BME280;35029;50.804;12.866;2023-02-28T06:34:10;98921.56;;;-3.20;100.00
49194;BME280;35029;50.804;12.866;2023-02-28T06:36:41;98924.16;;;-3.20;100.00
49194;BME280;35029;50.804;12.866;2023-02-28T06:39:08;98929.22;;;-3.17;100.00
49194;BME280;35029;50.804;12.866;2023-02-28T06:41:34;98932.72;;;-3.18;100.00
49194;BME280;35029;50.804;12.866;2023-02-28T06:44:12;98939.41;;;-3.14;100.00
49194;BME280;35029;50.804;12.866;2023-02-28T06:46:40;98952.13;;;-3.10;99.88
49194;BME280;35029;50.804;12.866;2023-02-28T06:49:07;98918.91;;;-3.19;99.80
49194;BME280;35029;50.804;12.866;2023-02-28T06:51:38;98954.44;;;-3.03;99.53
49194;BME280;35029;50.804;12.866;2023-02-28T06:54:04;98939.16;;;-3.10;99.47
49194;BME280;35029;50.804;12.866;2023-02-28T06:56:30;98965.03;;;-2.75;100.00
49194;BME280;35029;50.804;12.866;2023-02-28T06:58:56;98950.06;;;-2.38;100.00
49194;BME280;35029;50.804;12.866;2023-02-28T07:01:22;98953.25;;;-2.32;100.00
49194;BME280;35029;50.804;12.866;2023-02-28T07:03:49;98955.94;;;-2.50;99.80
49194;BME280;35029;50.804;12.866;2023-02-28T07:06:19;98953.91;;;-2.61;99.14
49194;BME280;35029;50.804;12.866;2023-02-28T07:08:49;98964.38;;;-2.62;98.94
49194;BME280;35029;50.804;12.866;2023-02-28T07:11:16;98963.78;;;-2.67;98.18
49194;BME280;35029;50.804;12.866;2023-02-28T07:13:41;98959.38;;;-2.65;99.23
49194;BME280;35029;50.804;12.866;2023-02-28T07:16:09;98955.75;;;-2.63;98.33
49194;BME280;35029;50.804;12.866;2023-02-28T07:18:37;98961.63;;;-2.59;97.28
49194;BME280;35029;50.804;12.866;2023-02-28T07:21:04;98974.38;;;-2.55;96.53
49194;BME280;35029;50.804;12.866;2023-02-28T07:23:32;98972.94;;;-2.44;96.83
49194;BME280;35029;50.804;12.866;2023-02-28T07:25:58;98950.09;;;-2.53;96.49
49194;BME280;35029;50.804;12.866;2023-02-28T07:28:24;98971.34;;;-2.31;96.22
49194;BME280;35029;50.804;12.866;2023-02-28T07:30:49;98963.06;;;-2.22;95.42
49194;BME280;35029;50.804;12.866;2023-02-28T07:33:16;98969.69;;;-2.16;95.54
49194;BME280;35029;50.804;12.866;2023-02-28T07:35:43;98971.94;;;-2.10;94.41
49194;BME280;35029;50.804;12.866;2023-02-28T07:38:09;98949.31;;;-2.24;93.97
49194;BME280;35029;50.804;12.866;2023-02-28T07:40:35;98960.88;;;-2.13;92.69
49194;BME280;35029;50.804;12.866;2023-02-28T07:43:02;98982.06;;;-1.89;91.73
49194;BME280;35029;50.804;12.866;2023-02-28T07:45:27;98965.31;;;-1.99;89.71
49194;BME280;35029;50.804;12.866;2023-02-28T07:47:55;98961.78;;;-1.98;89.74
49194;BME280;35029;50.804;12.866;2023-02-28T07:50:21;98973.56;;;-1.77;89.03
49194;BME280;35029;50.804;12.866;2023-02-28T07:52:48;98969.19;;;-1.76;87.35
49194;BME280;35029;50.804;12.866;2023-02-28T07:55:14;98962.91;;;-1.72;87.33
49194;BME280;35029;50.804;12.866;2023-02-28T07:57:40;98977.47;;;-1.54;87.40
49194;BME280;35029;50.804;12.866;2023-02-28T08:00:08;98975.66;;;-1.37;86.10
49194;BME280;35029;50.804;12.866;2023-02-28T08:02:39;98985.78;;;-1.32;84.13
49194;BME280;35029;50.804;12.866;2023-02-28T08:05:06;98977.81;;;-1.29;83.98
49194;BME280;35029;50.804;12.866;2023-02-28T08:07:31;98970.28;;;-1.20;83.67
49194;BME280;35029;50.804;12.866;2023-02-28T08:09:58;98960.91;;;-1.22;82.89
49194;BME280;35029;50.804;12.866;2023-02-28T08:12:24;98978.63;;;-1.29;78.84
49194;BME280;35029;50.804;12.866;2023-02-28T08:14:49;98989.53;;;-1.22;78.83
49194;BME280;35029;50.804;12.866;2023-02-28T08:17:15;98976.13;;;-1.16;78.35
49194;BME280;35029;50.804;12.866;2023-02-28T08:19:40;98977.38;;;-1.07;78.28
49194;BME280;35029;50.804;12.866;2023-02-28T08:22:06;98975.50;;;-1.05;77.03
49194;BME280;35029;50.804;12.866;2023-02-28T08:24:33;98977.63;;;-1.12;76.60
49194;BME280;35029;50.804;12.866;2023-02-28T08:26:59;98968.13;;;-1.27;75.94
49194;BME280;35029;50.804;12.866;2023-02-28T08:29:24;98986.09;;;-1.23;74.92
49194;BME280;35029;50.804;12.866;2023-02-28T08:31:50;98977.53;;;-1.25;75.65
49194;BME280;35029;50.804;12.866;2023-02-28T08:34:16;98993.00;;;-1.07;74.84
49194;BME280;35029;50.804;12.866;2023-02-28T08:36:42;98963.06;;;-1.14;74.37
49194;BME280;35029;50.804;12.866;2023-02-28T08:39:10;98992.06;;;-0.92;73.95
49194;BME280;35029;50.804;12.866;2023-02-28T08:41:36;98965.72;;;-1.16;74.29
49194;BME280;35029;50.804;12.866;2023-02-28T08:44:02;98980.25;;;-0.97;73.44
49194;BME280;35029;50.804;12.866;2023-02-28T08:46:28;98974.38;;;-1.01;72.93
49194;BME280;35029;50.804;12.866;2023-02-28T08:48:55;98991.59;;;-0.70;73.26
49194;BME280;35029;50.804;12.866;2023-02-28T08:51:21;98991.16;;;-0.91;71.41
49194;BME280;35029;50.804;12.866;2023-02-28T08:53:53;99002.13;;;-0.71;71.43
49194;BME280;35029;50.804;12.866;2023-02-28T08:56:19;99006.31;;;-0.69;70.89
49194;BME280;35029;50.804;12.866;2023-02-28T08:58:46;98989.56;;;-0.79;70.12
49194;BME280;35029;50.804;12.866;2023-02-28T09:01:17;99001.19;;;-0.56;70.13
49194;BME280;35029;50.804;12.866;2023-02-28T09:03:43;98997.66;;;-0.40;70.96
49194;BME280;35029;50.804;12.866;2023-02-28T09:06:11;98988.91;;;-0.39;69.70
49194;BME280;35029;50.804;12.866;2023-02-28T09:08:37;99004.59;;;-0.26;70.26
49194;BME280;35029;50.804;12.866;2023-02-28T09:11:04;99001.09;;;-0.54;66.55
49194;BME280;35029;50.804;12.866;2023-02-28T09:13:30;99003.25;;;-0.61;67.83
49194;BME280;35029;50.804;12.866;2023-02-28T09:16:00;98980.09;;;-0.65;68.81
49194;BME280;35029;50.804;12.866;2023-02-28T09:18:26;98983.44;;;-0.49;68.95
49194;BME280;35029;50.804;12.866;2023-02-28T09:20:52;98995.69;;;-0.37;67.21
49194;BME280;35029;50.804;12.866;2023-02-28T09:23:18;98998.56;;;-0.27;68.72
49194;BME280;35029;50.804;12.866;2023-02-28T09:25:49;99001.88;;;-0.25;66.59
49194;BME280;35029;50.804;12.866;2023-02-28T09:28:15;99000.19;;;-0.11;68.21
49194;BME280;35029;50.804;12.866;2023-02-28T09:30:44;99001.94;;;0.03;68.45
49194;BME280;35029;50.804;12.866;2023-02-28T09:33:10;98994.59;;;-0.05;65.47
49194;BME280;35029;50.804;12.866;2023-02-28T09:35:35;98973.94;;;-0.08;66.33
49194;BME280;35029;50.804;12.866;2023-02-28T09:38:03;98995.31;;;0.11;66.72
49194;BME280;35029;50.804;12.866;2023-02-28T09:40:29;98995.94;;;0.15;65.80
49194;BME280;35029;50.804;12.866;2023-02-28T09:42:57;98992.69;;;0.11;66.21
49194;BME280;35029;50.804;12.866;2023-02-28T09:45:26;99004.75;;;0.27;67.21
49194;BME280;35029;50.804;12.866;2023-02-28T09:47:58;98977.72;;;0.28;67.51
49194;BME280;35029;50.804;12.866;2023-02-28T09:50:35;98997.66;;;0.56;68.06
49194;BME280;35029;50.804;12.866;2023-02-28T09:53:06;99002.06;;;0.69;66.90
49194;BME280;35029;50.804;12.866;2023-02-28T09:55:41;98988.41;;;0.78;67.15
49194;BME280;35029;50.804;12.866;2023-02-28T09:58:19;99003.31;;;0.76;62.64
49194;BME280;35029;50.804;12.866;2023-02-28T10:00:54;98995.50;;;0.89;65.55
49194;BME280;35029;50.804;12.866;2023-02-28T10:06:08;98994.25;;;0.94;65.13
49194;BME280;35029;50.804;12.866;2023-02-28T10:08:45;98992.97;;;0.74;63.14
49194;BME280;35029;50.804;12.866;2023-02-28T10:11:16;98993.19;;;0.71;61.10
49194;BME280;35029;50.804;12.866;2023-02-28T10:17:03;98993.16;;;0.58;61.88
49194;BME280;35029;50.804;12.866;2023-02-28T10:22:19;98997.81;;;0.93;63.66
49194;BME280;35029;50.804;12.866;2023-02-28T10:24:51;98985.03;;;0.63;61.68
49194;BME280;35029;50.804;12.866;2023-02-28T10:27:25;98935.94;;;0.68;63.11
49194;BME280;35029;50.804;12.866;2023-02-28T10:29:56;98965.66;;;0.93;60.94
49194;BME280;35029;50.804;12.866;2023-02-28T10:35:18;98988.50;;;1.15;62.66
49194;BME280;35029;50.804;12.866;2023-02-28T10:37:46;98980.03;;;0.86;60.51
49194;BME280;35029;50.804;12.866;2023-02-28T10:40:31;98963.72;;;1.08;62.32
49194;BME280;35029;50.804;12.866;2023-02-28T10:45:28;98963.66;;;1.09;61.26
49194;BME280;35029;50.804;12.866;2023-02-28T10:47:56;98968.75;;;1.37;62.58
49194;BME280;35029;50.804;12.866;2023-02-28T10:58:30;98976.56;;;2.24;64.17
49194;BME280;35029;50.804;12.866;2023-02-28T11:00:56;98974.88;;;1.98;61.44
49194;BME280;35029;50.804;12.866;2023-02-28T11:03:31;98958.59;;;1.82;62.42
49194;BME280;35029;50.804;12.866;2023-02-28T11:05:59;98962.56;;;1.88;61.32
49194;BME280;35029;50.804;12.866;2023-02-28T11:08:29;98951.66;;;1.94;60.04
49194;BME280;35029;50.804;12.866;2023-02-28T11:10:57;98958.94;;;2.01;60.53
49194;BME280;35029;50.804;12.866;2023-02-28T11:13:35;98961.72;;;2.11;61.37
49194;BME280;35029;50.804;12.866;2023-02-28T11:16:04;98917.25;;;1.63;58.97
49194;BME280;35029;50.804;12.866;2023-02-28T11:21:05;98943.78;;;2.18;60.92
49194;BME280;35029;50.804;12.866;2023-02-28T11:23:32;98943.25;;;2.26;59.09
49194;BME280;35029;50.804;12.866;2023-02-28T11:26:11;98932.38;;;2.19;60.37
49194;BME280;35029;50.804;12.866;2023-02-28T11:28:40;98943.44;;;2.47;62.35
49194;BME280;35029;50.804;12.866;2023-02-28T11:31:17;98942.97;;;2.53;59.02
49194;BME280;35029;50.804;12.866;2023-02-28T11:33:47;98934.56;;;2.61;61.92
49194;BME280;35029;50.804;12.866;2023-02-28T11:38:41;98924.66;;;2.53;57.34
49194;BME280;35029;50.804;12.866;2023-02-28T11:46:46;98903.75;;;3.32;73.17
49194;BME280;35029;50.804;12.866;2023-02-28T12:13:56;98927.00;;;3.03;58.23
49194;BME280;35029;50.804;12.866;2023-02-28T12:22:21;98925.41;;;2.66;59.31
49194;BME280;35029;50.804;12.866;2023-02-28T12:27:42;98891.03;;;2.94;57.83
49194;BME280;35029;50.804;12.866;2023-02-28T12:30:19;98910.66;;;2.77;58.84
49194;BME280;35029;50.804;12.866;2023-02-28T12:33:12;98916.50;;;2.69;57.56
49194;BME280;35029;50.804;12.866;2023-02-28T12:38:14;98899.84;;;3.27;60.20
49194;BME280;35029;50.804;12.866;2023-02-28T12:41:18;98881.38;;;3.40;60.86
49194;BME280;35029;50.804;12.866;2023-02-28T12:43:57;98894.34;;;3.52;59.54
49194;BME280;35029;50.804;12.866;2023-02-28T12:46:29;98896.72;;;3.44;59.34
49194;BME280;35029;50.804;12.866;2023-02-28T12:48:57;98891.13;;;3.37;60.11
49194;BME280;35029;50.804;12.866;2023-02-28T12:51:25;98854.22;;;3.07;60.46
49194;BME280;35029;50.804;12.866;2023-02-28T12:57:06;98894.72;;;3.36;61.27
49194;BME280;35029;50.804;12.866;2023-02-28T13:10:53;98889.44;;;2.46;61.23
49194;BME280;35029;50.804;12.866;2023-02-28T13:13:25;98889.94;;;2.62;62.55
49194;BME280;35029;50.804;12.866;2023-02-28T13:16:05;98888.84;;;2.53;61.53
49194;BME280;35029;50.804;12.866;2023-02-28T13:18:44;98890.75;;;2.51;59.92
49194;BME280;35029;50.804;12.866;2023-02-28T13:21:24;98886.97;;;2.67;61.23
49194;BME280;35029;50.804;12.866;2023-02-28T13:35:34;98888.63;;;2.68;60.30
49194;BME280;35029;50.804;12.866;2023-02-28T13:42:35;98895.91;;;2.98;60.51
49194;BME280;35029;50.804;12.866;2023-02-28T13:47:41;98887.00;;;2.90;58.62
49194;BME280;35029;50.804;12.866;2023-02-28T13:58:58;98868.50;;;3.36;61.52
49194;BME280;35029;50.804;12.866;2023-02-28T14:01:35;98874.34;;;3.40;59.35
49194;BME280;35029;50.804;12.866;2023-02-28T14:04:38;98875.72;;;3.55;58.75
49194;BME280;35029;50.804;12.866;2023-02-28T14:07:20;98854.22;;;3.29;58.90
49194;BME280;35029;50.804;12.866;2023-02-28T14:10:15;98863.25;;;3.48;57.91
49194;BME280;35029;50.804;12.866;2023-02-28T14:12:55;98868.50;;;3.80;59.24
49194;BME280;35029;50.804;12.866;2023-02-28T14:15:56;98870.06;;;3.83;56.15
49194;BME280;35029;50.804;12.866;2023-02-28T14:21:28;98860.56;;;4.03;58.29
49194;BME280;35029;50.804;12.866;2023-02-28T14:24:25;98846.22;;;4.07;58.29
49194;BME280;35029;50.804;12.866;2023-02-28T14:32:28;98843.13;;;3.81;58.38
49194;BME280;35029;50.804;12.866;2023-02-28T14:35:05;98857.94;;;4.03;57.93
49194;BME280;35029;50.804;12.866;2023-02-28T14:37:41;98856.91;;;3.94;57.38
49194;BME280;35029;50.804;12.866;2023-02-28T14:40:29;98861.41;;;3.71;57.23
49194;BME280;35029;50.804;12.866;2023-02-28T14:42:58;98846.69;;;3.80;58.37
49194;BME280;35029;50.804;12.866;2023-02-28T14:45:33;98840.97;;;3.86;57.42
49194;BME280;35029;50.804;12.866;2023-02-28T14:48:02;98849.84;;;3.62;57.26
49194;BME280;35029;50.804;12.866;2023-02-28T14:50:31;98847.22;;;3.62;57.30
49194;BME280;35029;50.804;12.866;2023-02-28T14:52:59;98836.59;;;3.75;59.02
49194;BME280;35029;50.804;12.866;2023-02-28T14:55:34;98819.94;;;3.65;57.60
49194;BME280;35029;50.804;12.866;2023-02-28T14:58:02;98842.31;;;3.69;57.26
49194;BME280;35029;50.804;12.866;2023-02-28T15:00:31;98831.38;;;3.64;58.74
49194;BME280;35029;50.804;12.866;2023-02-28T15:02:59;98828.69;;;3.86;57.99
49194;BME280;35029;50.804;12.866;2023-02-28T15:05:26;98835.56;;;4.20;59.10
49194;BME280;35029;50.804;12.866;2023-02-28T15:08:11;98847.34;;;4.26;57.28
49194;BME280;35029;50.804;12.866;2023-02-28T15:10:38;98835.03;;;4.26;57.09
49194;BME280;35029;50.804;12.866;2023-02-28T15:13:12;98838.88;;;4.01;56.30
49194;BME280;35029;50.804;12.866;2023-02-28T15:15:50;98845.34;;;3.97;56.10
49194;BME280;35029;50.804;12.866;2023-02-28T15:21:12;98839.44;;;4.04;55.20
49194;BME280;35029;50.804;12.866;2023-02-28T15:23:41;98837.72;;;4.15;56.09
49194;BME280;35029;50.804;12.866;2023-02-28T15:26:17;98842.63;;;3.87;57.27
49194;BME280;35029;50.804;12.866;2023-02-28T15:28:44;98823.47;;;3.75;57.37
49194;BME280;35029;50.804;12.866;2023-02-28T15:31:29;98837.22;;;3.67;61.38
49194;BME280;35029;50.804;12.866;2023-02-28T15:34:03;98837.69;;;3.72;57.96
49194;BME280;35029;50.804;12.866;2023-02-28T15:36:31;98841.09;;;3.52;57.79
49194;BME280;35029;50.804;12.866;2023-02-28T15:38:59;98846.84;;;3.34;59.88
49194;BME280;35029;50.804;12.866;2023-02-28T15:41:37;98841.84;;;3.20;60.52
49194;BME280;35029;50.804;12.866;2023-02-28T15:44:27;98844.25;;;3.00;60.30
49194;BME280;35029;50.804;12.866;2023-02-28T15:47:34;98839.50;;;2.83;60.57
49194;BME280;35029;50.804;12.866;2023-02-28T15:50:03;98842.44;;;2.67;60.59